createdAt,value
2023-04-07T00:03:02.116Z,15.60
2023-04-07T00:06:09.327Z,13.50
2023-04-07T00:09:17.278Z,14.90
2023-04-07T00:12:26.341Z,15.00
2023-04-07T00:15:33.999Z,14.00
2023-04-07T00:18:42.165Z,14.50
2023-04-07T00:21:51.272Z,16.30
2023-04-07T00:24:55.683Z,15.40
2023-04-07T00:28:03.392Z,15.00
2023-04-07T00:31:12.357Z,14.80
2023-04-07T00:34:20.471Z,15.20
2023-04-07T00:37:28.086Z,14.50
2023-04-07T00:40:35.925Z,14.70
2023-04-07T00:43:45.386Z,15.00
2023-04-07T00:46:52.785Z,15.10
2023-04-07T00:50:00.782Z,15.90
2023-04-07T00:53:09.757Z,17.70
2023-04-07T00:56:17.528Z,14.20
2023-04-07T00:59:25.071Z,14.90
2023-04-07T01:02:34.718Z,15.70
2023-04-07T01:05:42.030Z,13.80
2023-04-07T01:08:50.096Z,15.30
2023-04-07T01:11:59.144Z,15.40
2023-04-07T01:15:06.504Z,14.00
2023-04-07T01:18:14.528Z,13.80
2023-04-07T01:21:23.333Z,16.60
2023-04-07T01:24:30.946Z,14.70
2023-04-07T01:27:38.478Z,15.10
2023-04-07T01:30:46.156Z,14.90
2023-04-07T01:33:55.563Z,12.30
2023-04-07T01:37:03.436Z,13.00
2023-04-07T01:40:11.353Z,14.40
2023-04-07T01:43:20.272Z,15.70
2023-04-07T01:46:28.118Z,12.40
2023-04-07T01:49:36.039Z,14.10
2023-04-07T01:52:44.673Z,17.00
2023-04-07T01:55:52.570Z,12.60
2023-04-07T01:59:00.444Z,13.60
2023-04-07T02:02:09.183Z,14.20
2023-04-07T02:05:17.141Z,15.00
2023-04-07T02:08:24.730Z,14.20
2023-04-07T02:11:32.184Z,14.40
2023-04-07T02:14:41.361Z,13.80
2023-04-07T02:17:49.228Z,13.60
2023-04-07T02:20:56.951Z,12.20
2023-04-07T02:24:05.702Z,13.10
2023-04-07T02:27:13.560Z,13.20
2023-04-07T02:30:21.236Z,13.10
2023-04-07T02:33:30.206Z,14.90
2023-04-07T02:36:37.949Z,15.30
2023-04-07T02:39:45.487Z,13.60
2023-04-07T02:42:54.622Z,12.80
2023-04-07T02:46:02.453Z,12.20
2023-04-07T02:49:09.750Z,14.30
2023-04-07T02:52:18.336Z,17.10
2023-04-07T02:55:27.516Z,13.90
2023-04-07T02:58:34.833Z,13.70
2023-04-07T03:01:42.413Z,13.60
2023-04-07T03:04:51.273Z,16.10
2023-04-07T03:07:59.083Z,13.50
2023-04-07T03:11:06.934Z,17.90
2023-04-07T03:14:15.828Z,14.60
2023-04-07T03:17:23.497Z,14.50
2023-04-07T03:20:31.621Z,13.50
2023-04-07T03:23:40.720Z,12.60
2023-04-07T03:26:48.350Z,12.60
2023-04-07T03:29:55.865Z,14.70
2023-04-07T03:33:05.205Z,13.70
2023-04-07T03:36:12.666Z,11.90
2023-04-07T03:39:20.367Z,11.80
2023-04-07T03:42:28.591Z,13.10
2023-04-07T03:45:37.975Z,14.60
2023-04-07T03:48:46.554Z,14.80
2023-04-07T03:51:54.792Z,11.00
2023-04-07T03:55:03.997Z,15.70
2023-04-07T03:58:11.748Z,16.60
2023-04-07T04:01:19.785Z,13.30
2023-04-07T04:04:29.073Z,14.80
2023-04-07T04:07:37.000Z,16.40
2023-04-07T04:10:44.975Z,12.80
2023-04-07T04:13:54.250Z,11.20
2023-04-07T04:17:02.328Z,12.40
2023-04-07T04:20:03.236Z,14.40
2023-04-07T04:23:10.753Z,13.00
2023-04-07T04:26:19.718Z,13.90
2023-04-07T04:29:27.403Z,14.20
2023-04-07T04:32:35.657Z,12.90
2023-04-07T04:35:45.003Z,12.00
2023-04-07T04:38:52.467Z,13.90
2023-04-07T04:42:00.460Z,13.80
2023-04-07T04:45:09.810Z,13.00
2023-04-07T04:48:17.806Z,15.00
2023-04-07T04:51:25.898Z,13.00
2023-04-07T04:54:35.058Z,15.80
2023-04-07T04:57:42.706Z,12.40
2023-04-07T05:00:50.788Z,14.30
2023-04-07T05:03:58.640Z,12.70
2023-04-07T05:07:08.784Z,16.10
2023-04-07T05:10:17.291Z,13.60
2023-04-07T05:13:24.776Z,15.30
2023-04-07T05:16:34.481Z,13.20
2023-04-07T05:19:42.446Z,14.00
2023-04-07T05:22:51.335Z,15.50
2023-04-07T05:26:01.312Z,16.10
2023-04-07T05:29:08.929Z,14.70
2023-04-07T05:32:16.275Z,15.50
2023-04-07T05:35:25.358Z,13.90
2023-04-07T05:38:32.946Z,14.60
2023-04-07T05:41:41.349Z,15.60
2023-04-07T05:44:50.780Z,14.20
2023-04-07T05:47:58.536Z,14.50
2023-04-07T05:51:06.309Z,17.50
2023-04-07T05:54:14.423Z,14.10
2023-04-07T05:57:23.252Z,14.30
2023-04-07T06:00:30.822Z,14.80
2023-04-07T06:03:38.742Z,15.80
2023-04-07T06:06:48.181Z,13.40
2023-04-07T06:09:56.036Z,13.90
2023-04-07T06:13:03.770Z,14.30
2023-04-07T06:16:13.461Z,13.60
2023-04-07T06:19:21.338Z,15.30
2023-04-07T06:22:28.894Z,12.30
2023-04-07T06:25:38.377Z,10.80
2023-04-07T06:28:46.060Z,12.00
2023-04-07T06:31:53.879Z,13.70
2023-04-07T06:35:01.910Z,11.70
2023-04-07T06:38:10.865Z,14.00
2023-04-07T06:41:18.739Z,11.30
2023-04-07T06:44:27.034Z,10.90
2023-04-07T06:47:36.170Z,11.60
2023-04-07T06:50:45.014Z,18.40
2023-04-07T06:53:53.435Z,11.30
2023-04-07T06:57:02.534Z,9.60
2023-04-07T07:00:10.388Z,10.30
2023-04-07T07:03:18.497Z,9.90
2023-04-07T07:06:27.631Z,8.50
2023-04-07T07:09:35.417Z,8.00
2023-04-07T07:12:43.051Z,8.40
2023-04-07T07:15:52.854Z,9.00
2023-04-07T07:19:00.570Z,7.30
2023-04-07T07:22:08.317Z,10.50
2023-04-07T07:25:16.326Z,10.30
2023-04-07T07:28:25.346Z,10.00
2023-04-07T07:31:32.936Z,10.10
2023-04-07T07:34:40.941Z,8.20
2023-04-07T07:37:50.270Z,9.40
2023-04-07T07:40:57.587Z,8.80
2023-04-07T07:44:05.405Z,9.20
2023-04-07T07:47:14.889Z,11.10
2023-04-07T07:50:22.283Z,10.10
2023-04-07T07:53:30.226Z,8.90
2023-04-07T07:56:39.229Z,8.80
2023-04-07T07:59:46.839Z,9.00
2023-04-07T08:02:55.277Z,9.60
2023-04-07T08:06:02.863Z,11.80
2023-04-07T08:09:11.738Z,11.10
2023-04-07T08:12:19.832Z,9.60
2023-04-07T08:15:27.817Z,9.00
2023-04-07T08:18:36.715Z,10.20
2023-04-07T08:21:44.973Z,9.90
2023-04-07T08:24:52.982Z,9.40
2023-04-07T08:28:02.204Z,11.80
2023-04-07T08:31:09.968Z,9.60
2023-04-07T08:34:18.056Z,9.80
2023-04-07T08:37:27.042Z,8.90
2023-04-07T08:40:35.112Z,9.30
2023-04-07T08:43:43.296Z,10.20
2023-04-07T08:46:51.440Z,9.40
2023-04-07T08:50:00.442Z,9.30
2023-04-07T08:53:08.721Z,9.00
2023-04-07T08:56:15.993Z,8.00
2023-04-07T08:59:25.582Z,10.20
2023-04-07T09:02:33.838Z,8.90
2023-04-07T09:05:41.474Z,6.70
2023-04-07T09:08:50.931Z,8.80
2023-04-07T09:11:58.899Z,8.30
2023-04-07T09:15:06.468Z,8.60
2023-04-07T09:18:16.089Z,11.00
2023-04-07T09:21:23.782Z,9.60
2023-04-07T09:24:32.058Z,9.80
2023-04-07T09:27:41.343Z,10.40
2023-04-07T09:30:49.114Z,11.00
2023-04-07T09:33:57.422Z,9.90
2023-04-07T09:37:05.079Z,10.00
2023-04-07T09:40:14.474Z,10.00
2023-04-07T09:43:22.387Z,10.70
2023-04-07T09:46:30.109Z,10.40
2023-04-07T09:49:39.140Z,9.20
2023-04-07T09:52:47.120Z,9.30
2023-04-07T09:55:54.596Z,10.50
2023-04-07T09:59:03.495Z,9.20
2023-04-07T10:02:11.435Z,9.70
2023-04-07T10:05:18.794Z,9.20
2023-04-07T10:08:28.433Z,8.50
2023-04-07T10:11:36.394Z,9.20
2023-04-07T10:14:43.629Z,8.90
2023-04-07T10:17:51.305Z,10.30
2023-04-07T10:21:00.356Z,9.70
2023-04-07T10:24:07.928Z,10.90
2023-04-07T10:27:15.814Z,10.30
2023-04-07T10:30:24.474Z,9.10
2023-04-07T10:33:32.316Z,9.80
2023-04-07T10:36:40.330Z,10.70
2023-04-07T10:39:49.226Z,9.50
2023-04-07T10:42:56.787Z,13.00
2023-04-07T10:46:04.434Z,9.20
2023-04-07T10:49:14.704Z,9.80
2023-04-07T10:52:23.306Z,8.90
2023-04-07T10:55:30.619Z,11.00
2023-04-07T10:58:38.696Z,9.80
2023-04-07T11:01:47.780Z,10.50
2023-04-07T11:04:55.096Z,11.40
2023-04-07T11:08:03.221Z,8.00
2023-04-07T11:11:12.490Z,8.60
2023-04-07T11:14:20.260Z,9.20
2023-04-07T11:17:28.590Z,10.70
2023-04-07T11:20:37.407Z,7.40
2023-04-07T11:23:46.032Z,8.70
2023-04-07T11:26:54.381Z,8.80
2023-04-07T11:30:03.373Z,7.80
2023-04-07T11:33:11.782Z,8.00
2023-04-07T11:36:20.058Z,9.60
2023-04-07T11:39:28.978Z,6.80
2023-04-07T11:42:37.026Z,6.80
2023-04-07T11:45:44.904Z,8.50
2023-04-07T11:48:52.128Z,9.20
2023-04-07T11:52:01.332Z,6.80
2023-04-07T11:55:08.938Z,10.90
2023-04-07T11:58:16.457Z,8.50
2023-04-07T12:01:25.694Z,6.30
2023-04-07T12:04:33.012Z,6.80
2023-04-07T12:07:40.895Z,5.70
2023-04-07T12:10:50.032Z,7.70
2023-04-07T12:13:58.149Z,8.40
2023-04-07T12:17:05.720Z,7.60
2023-04-07T12:20:14.468Z,5.60
2023-04-07T12:23:22.516Z,7.70
2023-04-07T12:26:30.366Z,7.10
2023-04-07T12:29:38.138Z,8.80
2023-04-07T12:32:47.400Z,4.60
2023-04-07T12:35:54.713Z,5.70
2023-04-07T12:39:02.832Z,5.50
2023-04-07T12:42:12.223Z,5.90
2023-04-07T12:45:12.680Z,6.40
2023-04-07T12:48:20.579Z,4.90
2023-04-07T12:51:29.698Z,5.70
2023-04-07T12:54:36.952Z,6.10
2023-04-07T12:57:44.877Z,4.90
2023-04-07T13:00:54.316Z,7.90
2023-04-07T13:04:01.574Z,5.00
2023-04-07T13:07:09.204Z,4.40
2023-04-07T13:10:17.305Z,4.30
2023-04-07T13:13:25.944Z,4.90
2023-04-07T13:16:34.056Z,5.10
2023-04-07T13:19:41.671Z,5.60
2023-04-07T13:23:02.903Z,5.50
2023-04-07T13:25:55.927Z,5.10
2023-04-07T13:29:03.647Z,7.10
2023-04-07T13:32:12.704Z,5.50
2023-04-07T13:35:20.348Z,7.40
2023-04-07T13:38:28.233Z,6.80
2023-04-07T13:41:37.088Z,5.00
2023-04-07T13:44:44.676Z,6.70
2023-04-07T13:51:00.256Z,7.20
2023-04-07T13:54:09.222Z,5.80
2023-04-07T13:57:17.177Z,6.60
2023-04-07T14:00:24.924Z,5.80
2023-04-07T14:03:34.149Z,7.20
2023-04-07T14:06:41.891Z,7.20
2023-04-07T14:09:49.180Z,5.60
2023-04-07T14:12:58.568Z,4.10
2023-04-07T14:16:06.379Z,8.50
2023-04-07T14:19:13.460Z,5.80
2023-04-07T14:22:23.009Z,5.40
2023-04-07T14:25:30.882Z,4.90
2023-04-07T14:28:38.234Z,5.70
2023-04-07T14:31:47.340Z,6.60
2023-04-07T14:34:55.013Z,5.40
2023-04-07T14:38:02.753Z,7.70
2023-04-07T14:41:10.721Z,4.70
2023-04-07T14:44:19.609Z,4.40
2023-04-07T14:47:27.215Z,4.20
2023-04-07T14:50:35.167Z,4.80
2023-04-07T14:53:44.244Z,5.10
2023-04-07T14:56:51.889Z,5.00
2023-04-07T15:00:00.041Z,6.40
2023-04-07T15:03:09.226Z,5.10
2023-04-07T15:06:16.936Z,6.20
2023-04-07T15:09:24.456Z,5.20
2023-04-07T15:12:33.723Z,6.00
2023-04-07T15:15:41.476Z,6.10
2023-04-07T15:18:48.786Z,4.40
2023-04-07T15:21:56.600Z,5.90
2023-04-07T15:25:05.164Z,6.60
2023-04-07T15:28:13.049Z,4.40
2023-04-07T15:31:20.969Z,6.20
2023-04-07T15:34:29.608Z,4.90
2023-04-07T15:37:37.573Z,7.00
2023-04-07T15:40:45.459Z,5.60
2023-04-07T15:43:54.201Z,7.40
2023-04-07T15:47:02.326Z,5.80
2023-04-07T15:50:10.083Z,9.00
2023-04-07T15:53:18.737Z,5.10
2023-04-07T15:56:26.685Z,4.80
2023-04-07T15:59:34.708Z,6.10
2023-04-07T16:02:42.198Z,5.20
2023-04-07T16:05:51.573Z,5.70
2023-04-07T16:08:59.201Z,4.90
2023-04-07T16:12:06.854Z,4.80
2023-04-07T16:15:22.628Z,5.70
2023-04-07T16:18:20.833Z,7.40
2023-04-07T16:21:28.538Z,5.00
2023-04-07T16:24:38.085Z,5.80
2023-04-07T16:27:45.676Z,5.60
2023-04-07T16:30:53.395Z,4.50
2023-04-07T16:34:02.613Z,5.70
2023-04-07T16:37:10.528Z,4.10
2023-04-07T16:40:18.132Z,5.20
2023-04-07T16:43:25.918Z,5.10
2023-04-07T16:46:35.314Z,4.90
2023-04-07T16:49:43.220Z,4.90
2023-04-07T16:52:50.589Z,3.00
2023-04-07T16:56:00.208Z,4.30
2023-04-07T16:59:07.603Z,3.60
2023-04-07T17:02:15.726Z,3.80
2023-04-07T17:05:25.606Z,4.80
2023-04-07T17:08:33.227Z,3.80
2023-04-07T17:11:41.026Z,3.50
2023-04-07T17:14:50.447Z,3.50
2023-04-07T17:17:58.752Z,4.10
2023-04-07T17:21:06.475Z,3.90
2023-04-07T17:24:15.936Z,4.20
2023-04-07T17:27:24.221Z,4.50
2023-04-07T17:30:31.931Z,3.50
2023-04-07T17:33:40.063Z,4.40
2023-04-07T17:36:51.242Z,4.90
2023-04-07T17:39:59.245Z,4.50
2023-04-07T17:43:06.918Z,3.90
2023-04-07T17:46:16.196Z,4.20
2023-04-07T17:49:24.002Z,3.00
2023-04-07T17:52:31.818Z,3.50
2023-04-07T17:55:41.172Z,3.60
2023-04-07T17:58:49.010Z,4.40
2023-04-07T18:01:56.783Z,3.50
2023-04-07T18:05:06.128Z,4.00
2023-04-07T18:08:13.605Z,2.80
2023-04-07T18:11:21.760Z,4.00
2023-04-07T18:14:29.469Z,2.60
2023-04-07T18:17:38.319Z,2.50
2023-04-07T18:20:46.694Z,4.10
2023-04-07T18:23:54.575Z,4.90
2023-04-07T18:27:03.738Z,3.60
2023-04-07T18:30:11.858Z,3.40
2023-04-07T18:33:12.035Z,3.70
2023-04-07T18:36:21.360Z,4.20
2023-04-07T18:39:29.323Z,3.40
2023-04-07T18:42:36.688Z,6.10
2023-04-07T18:45:45.895Z,3.60
2023-04-07T18:48:53.541Z,4.50
2023-04-07T18:52:02.084Z,4.50
2023-04-07T18:55:10.542Z,4.10
2023-04-07T18:58:19.670Z,6.50
2023-04-07T19:01:27.732Z,4.60
2023-04-07T19:04:35.464Z,7.10
2023-04-07T19:07:44.317Z,4.90
2023-04-07T19:10:52.570Z,4.40
2023-04-07T19:14:00.223Z,5.60
2023-04-07T19:17:09.328Z,7.20
2023-04-07T19:20:17.078Z,5.20
2023-04-07T19:23:24.653Z,4.80
2023-04-07T19:26:33.792Z,5.30
2023-04-07T19:29:41.663Z,4.90
2023-04-07T19:32:49.739Z,5.10
2023-04-07T19:35:58.718Z,6.20
2023-04-07T19:39:06.496Z,4.20
2023-04-07T19:42:13.857Z,6.10
2023-04-07T19:45:21.546Z,5.10
2023-04-07T19:48:30.628Z,7.00
2023-04-07T19:51:38.022Z,5.20
2023-04-07T19:54:46.429Z,5.10
2023-04-07T19:57:56.232Z,5.70
2023-04-07T20:01:03.574Z,4.80
2023-04-07T20:04:11.503Z,7.40
2023-04-07T20:07:20.504Z,4.10
2023-04-07T20:10:28.351Z,5.80
2023-04-07T20:13:36.420Z,4.80
2023-04-07T20:16:45.159Z,5.70
2023-04-07T20:19:53.174Z,4.90
2023-04-07T20:23:01.467Z,5.60
2023-04-07T20:26:08.634Z,5.40
2023-04-07T20:29:19.024Z,5.90
2023-04-07T20:32:28.343Z,5.10
2023-04-07T20:35:35.914Z,6.30
2023-04-07T20:38:45.148Z,6.00
2023-04-07T20:41:53.075Z,5.70
2023-04-07T20:45:01.093Z,5.10
2023-04-07T20:48:10.280Z,6.20
2023-04-07T20:51:17.970Z,5.20
2023-04-07T20:54:25.782Z,5.80
2023-04-07T20:57:36.374Z,6.00
2023-04-07T21:00:44.152Z,6.40
2023-04-07T21:03:52.284Z,6.90
2023-04-07T21:06:59.854Z,5.80
2023-04-07T21:10:09.109Z,5.30
2023-04-07T21:13:17.307Z,5.40
2023-04-07T21:16:24.805Z,6.50
2023-04-07T21:19:34.190Z,6.80
2023-04-07T21:22:42.082Z,6.50
2023-04-07T21:25:49.228Z,8.10
2023-04-07T21:28:58.499Z,7.70
2023-04-07T21:32:06.462Z,6.10
2023-04-07T21:35:13.616Z,6.20
2023-04-07T21:38:22.980Z,6.60
2023-04-07T21:41:30.539Z,5.90
2023-04-07T21:44:38.220Z,5.80
2023-04-07T21:47:46.095Z,7.60
2023-04-07T21:50:55.125Z,5.50
2023-04-07T21:54:02.716Z,4.80
2023-04-07T21:57:10.674Z,6.10
2023-04-07T22:00:19.849Z,6.10
2023-04-07T22:03:28.116Z,7.00
2023-04-07T22:06:36.122Z,6.10
2023-04-07T22:09:45.010Z,7.00
2023-04-07T22:12:52.548Z,6.70
2023-04-07T22:16:00.186Z,6.60
2023-04-07T22:19:09.256Z,9.00
2023-04-07T22:22:16.462Z,7.10
2023-04-07T22:25:23.913Z,8.10
2023-04-07T22:28:33.469Z,11.30
2023-04-07T22:31:41.581Z,7.50
2023-04-07T22:34:49.191Z,8.30
2023-04-07T22:37:57.275Z,9.70
2023-04-07T22:41:05.869Z,8.80
2023-04-07T22:44:13.714Z,10.60
2023-04-07T22:47:21.863Z,8.40
2023-04-07T22:50:30.602Z,7.70
2023-04-07T22:53:38.512Z,8.50
2023-04-07T22:56:46.415Z,9.10
2023-04-07T22:59:55.127Z,7.40
2023-04-07T23:03:03.076Z,9.90
2023-04-07T23:06:10.969Z,7.70
2023-04-07T23:09:19.543Z,9.10
2023-04-07T23:12:27.865Z,10.00
2023-04-07T23:15:35.353Z,10.70
2023-04-07T23:18:43.085Z,9.10
2023-04-07T23:21:52.582Z,10.40
2023-04-07T23:25:00.138Z,8.40
2023-04-07T23:28:07.670Z,8.90
2023-04-07T23:31:16.685Z,8.70
2023-04-07T23:34:24.148Z,10.40
2023-04-07T23:37:31.744Z,10.40
2023-04-07T23:40:40.969Z,9.50
2023-04-07T23:43:48.510Z,10.00
2023-04-07T23:46:56.294Z,13.80
2023-04-07T23:50:05.768Z,11.20
2023-04-07T23:53:13.217Z,12.80
2023-04-07T23:56:20.839Z,14.90
2023-04-07T23:59:29.902Z,14.10
